sensor_id;sensor_type;location;lat;lon;timestamp;pressure;altitude;pressure_sealevel;temperature;humidity
75497;BME280;64074;47.540;19.072;2023-12-20T00:00:19;100857.69;;;0.48;85.43
75497;BME280;64074;47.540;19.072;2023-12-20T00:03:28;100863.44;;;0.51;85.33
75497;BME280;64074;47.540;19.072;2023-12-20T00:06:49;100857.44;;;0.56;85.25
75497;BME280;64074;47.540;19.072;2023-12-20T00:10:23;100847.78;;;0.30;86.67
75497;BME280;64074;47.540;19.072;2023-12-20T00:13:50;100843.31;;;0.17;86.45
75497;BME280;64074;47.540;19.072;2023-12-20T00:17:11;100838.84;;;0.43;87.15
75497;BME280;64074;47.540;19.072;2023-12-20T00:20:33;100842.72;;;0.47;87.00
75497;BME280;64074;47.540;19.072;2023-12-20T00:23:54;100832.09;;;0.40;87.22
75497;BME280;64074;47.540;19.072;2023-12-20T00:27:05;100830.69;;;0.38;87.27
75497;BME280;64074;47.540;19.072;2023-12-20T00:30:16;100832.63;;;0.24;87.83
75497;BME280;64074;47.540;19.072;2023-12-20T00:33:52;100826.19;;;0.07;86.68
75497;BME280;64074;47.540;19.072;2023-12-20T00:37:20;100816.66;;;-0.14;88.61
75497;BME280;64074;47.540;19.072;2023-12-20T00:40:30;100810.63;;;-0.03;88.47
75497;BME280;64074;47.540;19.072;2023-12-20T00:43:44;100801.06;;;0.21;88.13
75497;BME280;64074;47.540;19.072;2023-12-20T00:46:48;100787.50;;;0.22;87.79
75497;BME280;64074;47.540;19.072;2023-12-20T00:49:58;100782.38;;;0.21;87.34
75497;BME280;64074;47.540;19.072;2023-12-20T00:53:18;100781.06;;;0.37;87.56
75497;BME280;64074;47.540;19.072;2023-12-20T00:56:40;100771.75;;;0.46;86.77
75497;BME280;64074;47.540;19.072;2023-12-20T00:59:49;100770.09;;;0.45;86.28
75497;BME280;64074;47.540;19.072;2023-12-20T01:03:24;100779.09;;;0.50;86.04
75497;BME280;64074;47.540;19.072;2023-12-20T01:06:48;100766.78;;;0.49;86.57
75497;BME280;64074;47.540;19.072;2023-12-20T01:09:58;100774.41;;;0.46;86.53
75497;BME280;64074;47.540;19.072;2023-12-20T01:13:27;100768.16;;;0.34;87.18
75497;BME280;64074;47.540;19.072;2023-12-20T01:16:54;100763.56;;;0.41;86.93
75497;BME280;64074;47.540;19.072;2023-12-20T01:20:05;100763.19;;;0.37;87.26
75497;BME280;64074;47.540;19.072;2023-12-20T01:23:28;100752.16;;;0.34;86.95
75497;BME280;64074;47.540;19.072;2023-12-20T01:26:51;100761.78;;;0.35;86.89
75497;BME280;64074;47.540;19.072;2023-12-20T01:30:20;100743.13;;;0.10;87.12
75497;BME280;64074;47.540;19.072;2023-12-20T01:33:37;100736.81;;;0.04;87.83
75497;BME280;64074;47.540;19.072;2023-12-20T01:36:55;100723.50;;;0.22;87.31
75497;BME280;64074;47.540;19.072;2023-12-20T01:40:05;100730.47;;;0.23;87.12
75497;BME280;64074;47.540;19.072;2023-12-20T01:43:34;100716.69;;;0.08;87.19
75497;BME280;64074;47.540;19.072;2023-12-20T01:47:00;100708.69;;;0.08;86.92
75497;BME280;64074;47.540;19.072;2023-12-20T01:50:36;100707.75;;;0.21;87.17
75497;BME280;64074;47.540;19.072;2023-12-20T01:53:57;100702.38;;;0.27;87.36
75497;BME280;64074;47.540;19.072;2023-12-20T01:57:19;100690.22;;;0.32;86.78
75497;BME280;64074;47.540;19.072;2023-12-20T02:00:40;100686.97;;;0.29;87.21
75497;BME280;64074;47.540;19.072;2023-12-20T02:03:45;100678.03;;;0.17;87.47
75497;BME280;64074;47.540;19.072;2023-12-20T02:06:57;100674.41;;;0.12;87.53
75497;BME280;64074;47.540;19.072;2023-12-20T02:10:09;100648.63;;;0.24;87.31
75497;BME280;64074;47.540;19.072;2023-12-20T02:13:17;100647.50;;;0.38;86.56
75497;BME280;64074;47.540;19.072;2023-12-20T02:16:24;100642.16;;;0.38;87.02
75497;BME280;64074;47.540;19.072;2023-12-20T02:19:29;100644.59;;;0.40;86.43
75497;BME280;64074;47.540;19.072;2023-12-20T02:22:39;100638.75;;;0.49;86.37
75497;BME280;64074;47.540;19.072;2023-12-20T02:26:04;100634.63;;;0.53;86.48
75497;BME280;64074;47.540;19.072;2023-12-20T02:29:19;100629.28;;;0.53;86.19
75497;BME280;64074;47.540;19.072;2023-12-20T02:32:30;100633.34;;;0.38;87.31
75497;BME280;64074;47.540;19.072;2023-12-20T02:35:34;100626.22;;;0.32;87.66
75497;BME280;64074;47.540;19.072;2023-12-20T02:38:38;100621.94;;;0.49;87.19
75497;BME280;64074;47.540;19.072;2023-12-20T02:41:48;100628.22;;;0.36;86.63
75497;BME280;64074;47.540;19.072;2023-12-20T02:45:14;100615.38;;;0.51;87.17
75497;BME280;64074;47.540;19.072;2023-12-20T02:48:38;100605.28;;;0.53;86.87
75497;BME280;64074;47.540;19.072;2023-12-20T02:51:42;100602.06;;;0.63;87.00
75497;BME280;64074;47.540;19.072;2023-12-20T02:54:52;100595.88;;;0.51;86.83
75497;BME280;64074;47.540;19.072;2023-12-20T02:58:22;100596.06;;;0.68;86.72
75497;BME280;64074;47.540;19.072;2023-12-20T03:01:49;100592.34;;;0.69;86.26
75497;BME280;64074;47.540;19.072;2023-12-20T03:05:17;100592.72;;;0.72;86.76
75497;BME280;64074;47.540;19.072;2023-12-20T03:08:27;100592.72;;;0.72;86.18
75497;BME280;64074;47.540;19.072;2023-12-20T03:12:02;100587.47;;;0.66;85.76
75497;BME280;64074;47.540;19.072;2023-12-20T03:15:23;100589.25;;;0.72;85.43
75497;BME280;64074;47.540;19.072;2023-12-20T03:18:47;100590.91;;;0.54;86.42
75497;BME280;64074;47.540;19.072;2023-12-20T03:22:04;100603.44;;;0.54;86.31
75497;BME280;64074;47.540;19.072;2023-12-20T03:25:20;100601.41;;;0.49;86.73
75497;BME280;64074;47.540;19.072;2023-12-20T03:28:24;100596.91;;;0.50;87.23
75497;BME280;64074;47.540;19.072;2023-12-20T03:31:31;100596.25;;;0.54;86.63
75497;BME280;64074;47.540;19.072;2023-12-20T03:34:41;100596.50;;;0.46;86.20
75497;BME280;64074;47.540;19.072;2023-12-20T03:37:55;100595.88;;;0.33;85.94
75497;BME280;64074;47.540;19.072;2023-12-20T03:41:10;100592.44;;;0.44;86.36
75497;BME280;64074;47.540;19.072;2023-12-20T03:44:29;100597.72;;;0.50;85.68
75497;BME280;64074;47.540;19.072;2023-12-20T03:47:33;100589.78;;;0.62;86.28
75497;BME280;64074;47.540;19.072;2023-12-20T03:50:43;100600.22;;;0.45;86.33
75497;BME280;64074;47.540;19.072;2023-12-20T03:54:05;100593.47;;;0.43;86.82
75497;BME280;64074;47.540;19.072;2023-12-20T03:57:15;100589.47;;;0.15;87.74
75497;BME280;64074;47.540;19.072;2023-12-20T04:00:54;100589.34;;;0.47;86.94
75497;BME280;64074;47.540;19.072;2023-12-20T04:04:09;100589.56;;;0.45;86.90
75497;BME280;64074;47.540;19.072;2023-12-20T04:07:13;100591.19;;;0.28;86.29
75497;BME280;64074;47.540;19.072;2023-12-20T04:10:25;100584.50;;;0.19;85.80
75497;BME280;64074;47.540;19.072;2023-12-20T04:13:55;100580.59;;;0.40;85.56
75497;BME280;64074;47.540;19.072;2023-12-20T04:17:08;100579.69;;;0.46;85.56
75497;BME280;64074;47.540;19.072;2023-12-20T04:20:20;100565.63;;;0.57;85.51
75497;BME280;64074;47.540;19.072;2023-12-20T04:23:42;100560.88;;;0.59;84.97
75497;BME280;64074;47.540;19.072;2023-12-20T04:27:06;100559.56;;;0.50;85.20
75497;BME280;64074;47.540;19.072;2023-12-20T04:30:30;100548.00;;;0.56;85.18
75497;BME280;64074;47.540;19.072;2023-12-20T04:33:40;100544.22;;;0.45;84.93
75497;BME280;64074;47.540;19.072;2023-12-20T04:37:04;100551.38;;;0.63;84.61
75497;BME280;64074;47.540;19.072;2023-12-20T04:40:35;100539.19;;;0.37;83.87
75497;BME280;64074;47.540;19.072;2023-12-20T04:43:52;100531.31;;;0.42;84.83
75497;BME280;64074;47.540;19.072;2023-12-20T04:47:15;100504.38;;;0.50;83.92
75497;BME280;64074;47.540;19.072;2023-12-20T04:50:32;100503.75;;;0.48;85.05
75497;BME280;64074;47.540;19.072;2023-12-20T04:53:43;100498.53;;;0.72;84.72
75497;BME280;64074;47.540;19.072;2023-12-20T04:56:49;100492.13;;;0.61;84.73
75497;BME280;64074;47.540;19.072;2023-12-20T04:59:53;100488.03;;;0.58;84.91
75497;BME280;64074;47.540;19.072;2023-12-20T05:03:00;100493.03;;;0.55;85.28
75497;BME280;64074;47.540;19.072;2023-12-20T05:06:03;100490.13;;;0.56;85.72
75497;BME280;64074;47.540;19.072;2023-12-20T05:09:06;100478.91;;;0.66;85.76
75497;BME280;64074;47.540;19.072;2023-12-20T05:12:17;100473.78;;;0.65;85.47
75497;BME280;64074;47.540;19.072;2023-12-20T05:15:22;100475.31;;;0.72;85.35
75497;BME280;64074;47.540;19.072;2023-12-20T05:18:29;100466.59;;;0.65;85.08
75497;BME280;64074;47.540;19.072;2023-12-20T05:21:33;100465.66;;;0.59;85.56
75497;BME280;64074;47.540;19.072;2023-12-20T05:24:40;100471.47;;;0.56;85.82
75497;BME280;64074;47.540;19.072;2023-12-20T05:27:50;100478.94;;;0.48;86.28
75497;BME280;64074;47.540;19.072;2023-12-20T05:31:04;100487.72;;;0.18;87.48
75497;BME280;64074;47.540;19.072;2023-12-20T05:34:24;100492.22;;;-0.37;90.87
75497;BME280;64074;47.540;19.072;2023-12-20T05:37:41;100487.00;;;0.11;89.18
75497;BME280;64074;47.540;19.072;2023-12-20T05:40:55;100477.59;;;0.27;88.58
75497;BME280;64074;47.540;19.072;2023-12-20T05:43:59;100465.94;;;0.21;88.37
75497;BME280;64074;47.540;19.072;2023-12-20T05:47:06;100464.34;;;0.02;89.53
75497;BME280;64074;47.540;19.072;2023-12-20T05:50:16;100460.34;;;-0.07;89.83
75497;BME280;64074;47.540;19.072;2023-12-20T05:53:22;100454.88;;;0.06;89.32
75497;BME280;64074;47.540;19.072;2023-12-20T05:56:31;100446.72;;;0.01;89.30
75497;BME280;64074;47.540;19.072;2023-12-20T05:59:47;100438.75;;;0.01;90.02
75497;BME280;64074;47.540;19.072;2023-12-20T06:02:55;100428.50;;;-0.02;90.08
75497;BME280;64074;47.540;19.072;2023-12-20T06:05:58;100436.94;;;-0.05;90.38
75497;BME280;64074;47.540;19.072;2023-12-20T06:09:18;100436.63;;;0.21;89.50
75497;BME280;64074;47.540;19.072;2023-12-20T06:12:27;100446.13;;;0.47;88.90
75497;BME280;64074;47.540;19.072;2023-12-20T06:15:59;100442.72;;;0.10;89.86
75497;BME280;64074;47.540;19.072;2023-12-20T06:19:16;100437.66;;;0.20;89.85
75497;BME280;64074;47.540;19.072;2023-12-20T06:22:44;100435.50;;;0.29;89.63
75497;BME280;64074;47.540;19.072;2023-12-20T06:25:54;100435.81;;;0.21;89.61
75497;BME280;64074;47.540;19.072;2023-12-20T06:29:29;100440.31;;;0.20;89.41
75497;BME280;64074;47.540;19.072;2023-12-20T06:32:51;100444.72;;;0.45;88.97
75497;BME280;64074;47.540;19.072;2023-12-20T06:36:14;100454.94;;;0.48;88.47
75497;BME280;64074;47.540;19.072;2023-12-20T06:39:24;100463.81;;;0.60;87.97
75497;BME280;64074;47.540;19.072;2023-12-20T06:42:54;100475.66;;;0.64;87.71
75497;BME280;64074;47.540;19.072;2023-12-20T06:46:29;100480.31;;;0.69;87.53
75497;BME280;64074;47.540;19.072;2023-12-20T06:49:40;100487.34;;;0.63;88.70
75497;BME280;64074;47.540;19.072;2023-12-20T06:53:08;100505.03;;;0.46;87.91
75497;BME280;64074;47.540;19.072;2023-12-20T06:56:18;100510.53;;;0.33;88.26
75497;BME280;64074;47.540;19.072;2023-12-20T06:59:45;100494.09;;;-0.01;89.21
75497;BME280;64074;47.540;19.072;2023-12-20T07:03:09;100500.44;;;-0.02;89.41
75497;BME280;64074;47.540;19.072;2023-12-20T07:06:29;100497.28;;;0.08;89.76
75497;BME280;64074;47.540;19.072;2023-12-20T07:09:56;100502.78;;;-0.31;89.86
75497;BME280;64074;47.540;19.072;2023-12-20T07:13:16;100501.50;;;-0.21;88.57
75497;BME280;64074;47.540;19.072;2023-12-20T07:16:37;100484.53;;;-0.27;88.70
75497;BME280;64074;47.540;19.072;2023-12-20T07:19:57;100492.91;;;-0.05;88.47
75497;BME280;64074;47.540;19.072;2023-12-20T07:23:19;100481.56;;;-0.01;88.10
75497;BME280;64074;47.540;19.072;2023-12-20T07:26:24;100488.34;;;0.02;88.28
75497;BME280;64074;47.540;19.072;2023-12-20T07:29:29;100486.25;;;0.04;88.08
75497;BME280;64074;47.540;19.072;2023-12-20T07:32:38;100491.16;;;0.25;88.12
75497;BME280;64074;47.540;19.072;2023-12-20T07:35:49;100496.47;;;0.07;87.70
75497;BME280;64074;47.540;19.072;2023-12-20T07:38:55;100501.78;;;-0.11;88.13
75497;BME280;64074;47.540;19.072;2023-12-20T07:42:03;100499.63;;;-0.03;87.85
75497;BME280;64074;47.540;19.072;2023-12-20T07:45:08;100490.09;;;-0.10;87.39
75497;BME280;64074;47.540;19.072;2023-12-20T07:48:14;100489.03;;;-0.27;87.29
75497;BME280;64074;47.540;19.072;2023-12-20T07:51:24;100489.03;;;-0.46;86.18
75497;BME280;64074;47.540;19.072;2023-12-20T07:54:41;100479.81;;;-0.50;86.10
75497;BME280;64074;47.540;19.072;2023-12-20T07:58:01;100473.53;;;-0.55;86.76
75497;BME280;64074;47.540;19.072;2023-12-20T08:01:13;100470.97;;;-0.25;85.67
75497;BME280;64074;47.540;19.072;2023-12-20T08:04:29;100478.75;;;-0.06;85.41
75497;BME280;64074;47.540;19.072;2023-12-20T08:07:45;100481.81;;;-0.20;85.54
75497;BME280;64074;47.540;19.072;2023-12-20T08:11:17;100469.50;;;-0.03;85.41
75497;BME280;64074;47.540;19.072;2023-12-20T08:14:45;100471.69;;;0.07;84.54
75497;BME280;64074;47.540;19.072;2023-12-20T08:18:13;100465.22;;;0.14;83.92
75497;BME280;64074;47.540;19.072;2023-12-20T08:21:31;100453.81;;;-0.11;85.63
75497;BME280;64074;47.540;19.072;2023-12-20T08:24:52;100463.91;;;-0.13;85.08
75497;BME280;64074;47.540;19.072;2023-12-20T08:28:20;100469.91;;;-0.18;84.00
75497;BME280;64074;47.540;19.072;2023-12-20T08:31:37;100470.31;;;-0.03;84.10
75497;BME280;64074;47.540;19.072;2023-12-20T08:34:58;100475.78;;;0.21;83.90
75497;BME280;64074;47.540;19.072;2023-12-20T08:38:25;100480.63;;;0.12;83.94
75497;BME280;64074;47.540;19.072;2023-12-20T08:41:35;100480.47;;;0.25;83.99
75497;BME280;64074;47.540;19.072;2023-12-20T08:44:49;100475.19;;;0.37;83.32
75497;BME280;64074;47.540;19.072;2023-12-20T08:48:11;100484.22;;;0.36;83.70
75497;BME280;64074;47.540;19.072;2023-12-20T08:51:35;100475.56;;;0.41;83.63
75497;BME280;64074;47.540;19.072;2023-12-20T08:54:56;100476.53;;;0.28;83.13
75497;BME280;64074;47.540;19.072;2023-12-20T08:58:18;100481.34;;;0.19;84.42
75497;BME280;64074;47.540;19.072;2023-12-20T09:01:35;100480.50;;;0.55;83.55
75497;BME280;64074;47.540;19.072;2023-12-20T09:04:51;100492.13;;;0.61;82.54
75497;BME280;64074;47.540;19.072;2023-12-20T09:08:22;100491.78;;;0.69;82.53
75497;BME280;64074;47.540;19.072;2023-12-20T09:11:32;100480.16;;;0.93;81.75
75497;BME280;64074;47.540;19.072;2023-12-20T09:15:06;100472.56;;;0.49;82.97
75497;BME280;64074;47.540;19.072;2023-12-20T09:18:16;100477.47;;;0.82;82.21
75497;BME280;64074;47.540;19.072;2023-12-20T09:21:46;100475.09;;;0.44;83.03
75497;BME280;64074;47.540;19.072;2023-12-20T09:25:13;100466.31;;;0.85;82.53
75497;BME280;64074;47.540;19.072;2023-12-20T09:28:34;100455.69;;;0.55;82.29
75497;BME280;64074;47.540;19.072;2023-12-20T09:31:54;100447.16;;;0.76;82.31
75497;BME280;64074;47.540;19.072;2023-12-20T09:35:14;100437.59;;;0.57;83.09
75497;BME280;64074;47.540;19.072;2023-12-20T09:38:35;100436.28;;;0.89;82.56
75497;BME280;64074;47.540;19.072;2023-12-20T09:45:22;100424.47;;;1.09;81.88
75497;BME280;64074;47.540;19.072;2023-12-20T09:48:41;100420.19;;;1.19;81.86
75497;BME280;64074;47.540;19.072;2023-12-20T09:52:04;100427.41;;;1.31;82.00
75497;BME280;64074;47.540;19.072;2023-12-20T09:55:25;100414.75;;;1.49;80.91
75497;BME280;64074;47.540;19.072;2023-12-20T09:58:39;100409.75;;;1.53;81.27
75497;BME280;64074;47.540;19.072;2023-12-20T10:01:48;100412.75;;;1.45;81.35
75497;BME280;64074;47.540;19.072;2023-12-20T10:04:59;100404.59;;;1.75;81.65
75497;BME280;64074;47.540;19.072;2023-12-20T10:08:15;100401.78;;;1.70;81.84
75497;BME280;64074;47.540;19.072;2023-12-20T10:11:42;100398.59;;;1.96;81.62
75497;BME280;64074;47.540;19.072;2023-12-20T10:15:03;100388.31;;;2.16;80.29
75497;BME280;64074;47.540;19.072;2023-12-20T10:18:20;100387.91;;;1.96;80.48
75497;BME280;64074;47.540;19.072;2023-12-20T10:21:23;100388.19;;;1.71;81.60
75497;BME280;64074;47.540;19.072;2023-12-20T10:24:29;100378.75;;;2.21;80.03
75497;BME280;64074;47.540;19.072;2023-12-20T10:27:37;100348.28;;;2.22;80.13
75497;BME280;64074;47.540;19.072;2023-12-20T10:30:44;100351.44;;;2.64;79.79
75497;BME280;64074;47.540;19.072;2023-12-20T10:33:48;100345.97;;;2.42;80.27
75497;BME280;64074;47.540;19.072;2023-12-20T10:37:01;100344.09;;;2.26;81.73
75497;BME280;64074;47.540;19.072;2023-12-20T10:40:15;100329.91;;;2.42;80.80
75497;BME280;64074;47.540;19.072;2023-12-20T10:43:37;100316.41;;;2.49;80.42
75497;BME280;64074;47.540;19.072;2023-12-20T10:47:06;100322.13;;;2.40;81.37
75497;BME280;64074;47.540;19.072;2023-12-20T10:50:17;100308.44;;;2.54;81.79
75497;BME280;64074;47.540;19.072;2023-12-20T10:53:47;100309.66;;;2.63;82.87
75497;BME280;64074;47.540;19.072;2023-12-20T10:57:09;100308.19;;;2.72;83.68
75497;BME280;64074;47.540;19.072;2023-12-20T11:00:31;100306.97;;;2.46;82.25
75497;BME280;64074;47.540;19.072;2023-12-20T11:03:55;100299.44;;;2.60;82.01
75497;BME280;64074;47.540;19.072;2023-12-20T11:10:48;100293.44;;;3.25;81.25
75497;BME280;64074;47.540;19.072;2023-12-20T11:14:07;100293.56;;;3.35;80.76
75497;BME280;64074;47.540;19.072;2023-12-20T11:17:26;100266.81;;;3.40;80.22
75497;BME280;64074;47.540;19.072;2023-12-20T11:20:44;100262.31;;;3.67;79.02
75497;BME280;64074;47.540;19.072;2023-12-20T11:24:06;100260.41;;;3.90;77.75
75497;BME280;64074;47.540;19.072;2023-12-20T11:27:20;100245.59;;;3.82;78.19
75497;BME280;64074;47.540;19.072;2023-12-20T11:30:40;100242.19;;;3.92;77.50
75497;BME280;64074;47.540;19.072;2023-12-20T11:33:48;100228.66;;;4.09;77.27
75497;BME280;64074;47.540;19.072;2023-12-20T11:36:58;100221.97;;;4.43;77.15
75497;BME280;64074;47.540;19.072;2023-12-20T11:40:06;100229.16;;;4.38;77.53
75497;BME280;64074;47.540;19.072;2023-12-20T11:43:38;100229.47;;;4.78;76.62
75497;BME280;64074;47.540;19.072;2023-12-20T11:46:52;100239.84;;;5.12;76.22
75497;BME280;64074;47.540;19.072;2023-12-20T11:50:04;100253.00;;;5.71;74.37
75497;BME280;64074;47.540;19.072;2023-12-20T11:53:33;100237.75;;;5.97;73.41
75497;BME280;64074;47.540;19.072;2023-12-20T11:56:49;100238.81;;;6.16;72.97
75497;BME280;64074;47.540;19.072;2023-12-20T12:00:10;100230.97;;;6.81;72.18
75497;BME280;64074;47.540;19.072;2023-12-20T12:03:26;100222.22;;;7.24;70.80
75497;BME280;64074;47.540;19.072;2023-12-20T12:06:44;100214.38;;;7.28;68.82
75497;BME280;64074;47.540;19.072;2023-12-20T12:09:49;100216.47;;;7.46;69.23
75497;BME280;64074;47.540;19.072;2023-12-20T12:12:54;100204.75;;;7.06;69.55
75497;BME280;64074;47.540;19.072;2023-12-20T12:16:05;100190.28;;;7.47;69.59
75497;BME280;64074;47.540;19.072;2023-12-20T12:19:24;100198.72;;;7.30;70.32
75497;BME280;64074;47.540;19.072;2023-12-20T12:22:28;100204.94;;;7.30;70.92
75497;BME280;64074;47.540;19.072;2023-12-20T12:25:38;100206.06;;;7.19;71.26
75497;BME280;64074;47.540;19.072;2023-12-20T12:28:55;100209.13;;;6.97;71.79
75497;BME280;64074;47.540;19.072;2023-12-20T12:32:17;100203.44;;;6.94;72.43
75497;BME280;64074;47.540;19.072;2023-12-20T12:35:40;100208.09;;;6.63;73.44
75497;BME280;64074;47.540;19.072;2023-12-20T12:39:03;100212.97;;;6.35;74.00
75497;BME280;64074;47.540;19.072;2023-12-20T12:42:24;100207.28;;;6.77;73.17
75497;BME280;64074;47.540;19.072;2023-12-20T12:45:47;100219.69;;;6.43;74.50
75497;BME280;64074;47.540;19.072;2023-12-20T12:49:09;100223.47;;;6.42;73.84
75497;BME280;64074;47.540;19.072;2023-12-20T12:52:33;100214.59;;;6.26;74.05
75497;BME280;64074;47.540;19.072;2023-12-20T12:55:42;100217.00;;;6.17;74.47
75497;BME280;64074;47.540;19.072;2023-12-20T12:58:54;100212.41;;;6.43;73.70
75497;BME280;64074;47.540;19.072;2023-12-20T13:02:01;100223.75;;;6.25;74.46
75497;BME280;64074;47.540;19.072;2023-12-20T13:05:12;100220.25;;;6.40;74.05
75497;BME280;64074;47.540;19.072;2023-12-20T13:08:29;100211.66;;;6.28;74.41
75497;BME280;64074;47.540;19.072;2023-12-20T13:11:57;100215.69;;;6.00;75.04
75497;BME280;64074;47.540;19.072;2023-12-20T13:15:23;100215.69;;;6.00;75.13
75497;BME280;64074;47.540;19.072;2023-12-20T13:18:39;100213.53;;;6.22;74.59
75497;BME280;64074;47.540;19.072;2023-12-20T13:21:51;100205.97;;;6.09;75.00
75497;BME280;64074;47.540;19.072;2023-12-20T13:25:28;100198.44;;;6.06;74.34
75497;BME280;64074;47.540;19.072;2023-12-20T13:28:54;100201.63;;;5.87;75.09
75497;BME280;64074;47.540;19.072;2023-12-20T13:32:24;100202.16;;;5.79;75.21
75497;BME280;64074;47.540;19.072;2023-12-20T13:35:41;100213.97;;;5.68;75.32
75497;BME280;64074;47.540;19.072;2023-12-20T13:38:58;100203.16;;;5.48;76.35
75497;BME280;64074;47.540;19.072;2023-12-20T13:42:18;100203.72;;;5.65;75.66
75497;BME280;64074;47.540;19.072;2023-12-20T13:45:36;100206.34;;;5.30;76.24
75497;BME280;64074;47.540;19.072;2023-12-20T13:49:00;100200.75;;;5.56;74.98
75497;BME280;64074;47.540;19.072;2023-12-20T13:52:11;100197.53;;;5.49;75.94
75497;BME280;64074;47.540;19.072;2023-12-20T14:04:11;100187.41;;;5.04;77.35
75497;BME280;64074;47.540;19.072;2023-12-20T14:07:36;100172.03;;;4.94;77.89
75497;BME280;64074;47.540;19.072;2023-12-20T14:10:46;100185.00;;;5.03;77.32
75497;BME280;64074;47.540;19.072;2023-12-20T14:14:03;100185.47;;;4.94;77.85
75497;BME280;64074;47.540;19.072;2023-12-20T14:17:24;100196.88;;;5.17;76.90
75497;BME280;64074;47.540;19.072;2023-12-20T14:20:35;100198.00;;;5.31;76.86
75497;BME280;64074;47.540;19.072;2023-12-20T14:23:43;100202.03;;;5.34;77.18
75497;BME280;64074;47.540;19.072;2023-12-20T14:26:58;100192.34;;;5.22;76.88
75497;BME280;64074;47.540;19.072;2023-12-20T14:30:09;100195.56;;;5.24;77.52
75497;BME280;64074;47.540;19.072;2023-12-20T14:33:16;100190.47;;;5.23;77.69
75497;BME280;64074;47.540;19.072;2023-12-20T14:36:27;100207.91;;;5.20;78.60
75497;BME280;64074;47.540;19.072;2023-12-20T14:39:41;100207.66;;;5.27;78.17
75497;BME280;64074;47.540;19.072;2023-12-20T14:42:49;100212.84;;;5.49;77.96
75497;BME280;64074;47.540;19.072;2023-12-20T14:45:59;100223.88;;;5.47;77.59
75497;BME280;64074;47.540;19.072;2023-12-20T14:49:07;100225.22;;;5.55;77.04
75497;BME280;64074;47.540;19.072;2023-12-20T14:52:18;100218.31;;;5.79;76.61
75497;BME280;64074;47.540;19.072;2023-12-20T14:55:32;100222.59;;;5.70;76.86
75497;BME280;64074;47.540;19.072;2023-12-20T14:58:44;100234.66;;;5.57;76.93
75497;BME280;64074;47.540;19.072;2023-12-20T15:01:48;100243.72;;;5.36;77.71
75497;BME280;64074;47.540;19.072;2023-12-20T15:04:58;100245.84;;;5.34;77.28
75497;BME280;64074;47.540;19.072;2023-12-20T15:08:10;100250.34;;;5.18;78.04
75497;BME280;64074;47.540;19.072;2023-12-20T15:11:28;100252.72;;;5.05;78.02
75497;BME280;64074;47.540;19.072;2023-12-20T15:14:57;100257.81;;;5.01;78.19
75497;BME280;64074;47.540;19.072;2023-12-20T15:18:30;100259.53;;;4.75;78.91
75497;BME280;64074;47.540;19.072;2023-12-20T15:21:43;100265.56;;;4.55;80.08
75497;BME280;64074;47.540;19.072;2023-12-20T15:25:07;100264.25;;;4.63;79.60
75497;BME280;64074;47.540;19.072;2023-12-20T15:28:32;100260.66;;;4.84;79.27
75497;BME280;64074;47.540;19.072;2023-12-20T15:31:49;100270.09;;;4.92;78.95
75497;BME280;64074;47.540;19.072;2023-12-20T15:35:07;100275.91;;;4.74;78.92
75497;BME280;64074;47.540;19.072;2023-12-20T15:38:31;100286.03;;;4.67;79.27
75497;BME280;64074;47.540;19.072;2023-12-20T15:41:51;100281.81;;;4.76;79.54
75497;BME280;64074;47.540;19.072;2023-12-20T15:45:15;100287.13;;;4.71;79.72
75497;BME280;64074;47.540;19.072;2023-12-20T15:48:38;100296.06;;;4.76;79.81
75497;BME280;64074;47.540;19.072;2023-12-20T15:51:54;100302.91;;;4.62;79.98
75497;BME280;64074;47.540;19.072;2023-12-20T15:55:19;100302.28;;;4.50;80.26
75497;BME280;64074;47.540;19.072;2023-12-20T15:58:37;100300.16;;;4.52;80.66
75497;BME280;64074;47.540;19.072;2023-12-20T16:01:53;100310.97;;;4.62;80.07
75497;BME280;64074;47.540;19.072;2023-12-20T16:05:22;100304.22;;;4.54;80.49
75497;BME280;64074;47.540;19.072;2023-12-20T16:08:32;100300.97;;;4.52;80.82
75497;BME280;64074;47.540;19.072;2023-12-20T16:11:55;100313.41;;;4.31;81.82
75497;BME280;64074;47.540;19.072;2023-12-20T16:14:58;100317.59;;;4.49;81.25
75497;BME280;64074;47.540;19.072;2023-12-20T16:18:09;100308.19;;;4.47;81.55
75497;BME280;64074;47.540;19.072;2023-12-20T16:21:22;100312.59;;;4.31;81.99
75497;BME280;64074;47.540;19.072;2023-12-20T16:24:33;100308.97;;;4.20;82.53
75497;BME280;64074;47.540;19.072;2023-12-20T16:27:45;100327.59;;;4.27;81.97
75497;BME280;64074;47.540;19.072;2023-12-20T16:31:13;100329.25;;;4.33;81.91
75497;BME280;64074;47.540;19.072;2023-12-20T16:34:20;100329.59;;;4.15;82.62
75497;BME280;64074;47.540;19.072;2023-12-20T16:37:28;100323.16;;;4.16;82.73
75497;BME280;64074;47.540;19.072;2023-12-20T16:40:33;100321.28;;;4.16;82.78
75497;BME280;64074;47.540;19.072;2023-12-20T16:43:43;100323.97;;;4.16;82.58
75497;BME280;64074;47.540;19.072;2023-12-20T16:47:00;100330.44;;;3.93;83.60
75497;BME280;64074;47.540;19.072;2023-12-20T16:50:11;100335.69;;;4.05;83.20
75497;BME280;64074;47.540;19.072;2023-12-20T16:53:39;100345.47;;;3.94;83.44
75497;BME280;64074;47.540;19.072;2023-12-20T16:56:52;100342.47;;;3.91;84.12
75497;BME280;64074;47.540;19.072;2023-12-20T17:00:21;100353.28;;;3.74;84.42
75497;BME280;64074;47.540;19.072;2023-12-20T17:03:32;100354.72;;;4.04;83.69
75497;BME280;64074;47.540;19.072;2023-12-20T17:06:58;100354.72;;;4.04;83.73
75497;BME280;64074;47.540;19.072;2023-12-20T17:10:02;100351.47;;;4.01;83.39
75497;BME280;64074;47.540;19.072;2023-12-20T17:13:05;100361.09;;;3.97;83.63
75497;BME280;64074;47.540;19.072;2023-12-20T17:16:34;100352.88;;;4.09;82.87
75497;BME280;64074;47.540;19.072;2023-12-20T17:19:44;100357.13;;;4.05;83.41
75497;BME280;64074;47.540;19.072;2023-12-20T17:23:16;100364.16;;;4.11;83.05